createdAt,value
2019-01-21T00:00:42.777Z,98434.63
2019-01-21T00:03:47.669Z,98435.12
2019-01-21T00:06:52.117Z,98438.20
2019-01-21T00:09:56.824Z,98441.55
2019-01-21T00:13:01.553Z,98441.14
2019-01-21T00:16:06.293Z,98440.20
2019-01-21T00:19:10.723Z,98446.86
2019-01-21T00:22:15.183Z,98449.30
2019-01-21T00:25:19.628Z,98448.56
2019-01-21T00:28:24.083Z,98453.87
2019-01-21T00:31:28.816Z,98448.26
2019-01-21T00:34:33.252Z,98452.75
2019-01-21T00:37:37.701Z,98462.45
2019-01-21T00:40:42.151Z,98467.39
2019-01-21T00:43:46.599Z,98462.37
2019-01-21T00:46:51.340Z,98464.15
2019-01-21T00:49:56.073Z,98465.31
2019-01-21T00:53:00.517Z,98463.34
2019-01-21T00:56:04.981Z,98469.36
2019-01-21T00:59:09.428Z,98470.71
2019-01-21T01:02:14.168Z,98472.78
2019-01-21T01:05:19.714Z,98472.80
2019-01-21T01:08:24.162Z,98477.01
2019-01-21T01:11:28.620Z,98479.67
2019-01-21T01:14:33.067Z,98482.37
2019-01-21T01:17:37.520Z,98485.52
2019-01-21T01:20:41.962Z,98490.09
2019-01-21T01:23:46.670Z,98489.75
2019-01-21T01:26:51.120Z,98489.82
2019-01-21T01:29:55.555Z,98490.25
2019-01-21T01:33:00.016Z,98496.11
2019-01-21T01:36:04.532Z,98497.66
2019-01-21T01:39:09.403Z,98495.92
2019-01-21T01:42:13.850Z,98493.84
2019-01-21T01:45:22.043Z,98492.45
2019-01-21T01:48:26.871Z,98498.77
2019-01-21T01:51:31.315Z,98506.36
2019-01-21T01:54:35.771Z,98504.28
2019-01-21T01:57:40.224Z,98505.30
2019-01-21T02:00:44.661Z,98501.58
2019-01-21T02:03:49.110Z,98502.24
2019-01-21T02:06:53.839Z,98503.08
2019-01-21T02:09:58.465Z,98506.04
2019-01-21T02:13:02.984Z,98506.80
2019-01-21T02:16:07.415Z,98510.24
2019-01-21T02:19:12.134Z,98515.58
2019-01-21T02:22:17.414Z,98517.31
2019-01-21T02:25:26.102Z,98512.54
2019-01-21T02:28:55.933Z,98510.01
2019-01-21T02:32:28.859Z,98506.38
2019-01-21T02:35:38.033Z,98511.60
2019-01-21T02:39:11.120Z,98511.55
2019-01-21T02:42:55.194Z,98509.34
2019-01-21T02:46:19.594Z,98508.97
2019-01-21T02:49:49.838Z,98509.08
2019-01-21T02:53:16.973Z,98508.64
2019-01-21T02:56:44.207Z,98509.20
2019-01-21T03:00:02.482Z,98511.11
2019-01-21T03:03:23.462Z,98511.05
2019-01-21T03:06:38.223Z,98507.16
2019-01-21T03:10:07.362Z,98506.98
2019-01-21T03:13:34.229Z,98510.78
2019-01-21T03:17:00.613Z,98501.00
2019-01-21T03:20:30.465Z,98502.67
2019-01-21T03:23:52.195Z,98505.48
2019-01-21T03:27:26.009Z,98500.82
2019-01-21T03:31:22.539Z,98504.66
2019-01-21T03:34:43.874Z,98501.92
2019-01-21T03:38:18.920Z,98498.38
2019-01-21T03:41:34.089Z,98498.91
2019-01-21T03:45:16.388Z,98508.98
2019-01-21T03:48:28.510Z,98515.92
2019-01-21T03:52:00.189Z,98516.31
2019-01-21T03:55:09.555Z,98517.01
2019-01-21T03:58:44.468Z,98520.60
2019-01-21T04:01:56.102Z,98517.19
2019-01-21T04:05:27.527Z,98518.62
2019-01-21T04:08:57.108Z,98524.13
2019-01-21T04:12:17.919Z,98519.80
2019-01-21T04:15:41.900Z,98519.05
2019-01-21T04:19:13.248Z,98523.33
2019-01-21T04:22:31.080Z,98514.23
2019-01-21T04:25:48.371Z,98513.17
2019-01-21T04:29:12.601Z,98517.50
2019-01-21T04:32:33.236Z,98511.72
2019-01-21T04:36:04.778Z,98511.17
2019-01-21T04:39:13.939Z,98513.82
2019-01-21T04:42:44.385Z,98512.15
2019-01-21T04:46:02.073Z,98514.16
2019-01-21T04:49:25.747Z,98510.67
2019-01-21T04:52:53.313Z,98517.88
2019-01-21T04:56:22.415Z,98517.50
2019-01-21T04:59:37.483Z,98520.73
2019-01-21T05:03:24.610Z,98527.11
2019-01-21T05:07:05.327Z,98525.02
2019-01-21T05:10:23.123Z,98528.91
2019-01-21T05:13:50.009Z,98530.47
2019-01-21T05:17:14.369Z,98535.59
2019-01-21T05:20:43.283Z,98528.64
2019-01-21T05:24:25.753Z,98533.97
2019-01-21T05:27:37.516Z,98528.93
2019-01-21T05:30:52.593Z,98541.41
2019-01-21T05:34:16.836Z,98549.64
2019-01-21T05:37:37.834Z,98548.97
2019-01-21T05:41:23.244Z,98555.08
2019-01-21T05:45:14.356Z,98558.83
2019-01-21T05:48:56.559Z,98552.37
2019-01-21T05:52:37.537Z,98556.15
2019-01-21T05:56:01.539Z,98560.83
2019-01-21T05:59:22.876Z,98564.28
2019-01-21T06:02:58.419Z,98561.31
2019-01-21T06:06:19.690Z,98564.23
2019-01-21T06:09:34.993Z,98568.53
2019-01-21T06:12:59.048Z,98570.69
2019-01-21T06:16:20.495Z,98572.02
2019-01-21T06:19:35.793Z,98567.94
2019-01-21T06:23:13.537Z,98582.03
2019-01-21T06:26:39.007Z,98583.80
2019-01-21T06:30:00.022Z,98582.81
2019-01-21T06:33:38.120Z,98582.94
2019-01-21T06:36:55.980Z,98580.98
2019-01-21T06:40:28.346Z,98584.44
2019-01-21T06:43:51.714Z,98590.13
2019-01-21T06:47:06.300Z,98588.80
2019-01-21T06:50:30.708Z,98597.54
2019-01-21T06:53:54.835Z,98600.81
2019-01-21T06:57:37.322Z,98603.34
2019-01-21T07:01:27.497Z,98604.16
2019-01-21T07:05:08.543Z,98605.95
2019-01-21T07:08:53.617Z,98606.39
2019-01-21T07:12:12.066Z,98610.02
2019-01-21T07:15:51.817Z,98618.89
2019-01-21T07:19:10.948Z,98618.59
2019-01-21T07:22:29.862Z,98626.14
2019-01-21T07:26:15.358Z,98628.93
2019-01-21T07:29:53.549Z,98625.31
2019-01-21T07:33:19.377Z,98626.13
2019-01-21T07:36:46.845Z,98629.02
2019-01-21T07:40:02.024Z,98632.50
2019-01-21T07:43:19.549Z,98630.11
2019-01-21T07:46:49.340Z,98632.09
2019-01-21T07:50:13.370Z,98629.97
2019-01-21T07:53:51.059Z,98636.69
2019-01-21T07:57:25.574Z,98637.83
2019-01-21T08:00:52.730Z,98637.02
2019-01-21T08:04:21.122Z,98642.19
2019-01-21T08:07:42.240Z,98641.66
2019-01-21T08:11:10.467Z,98642.73
2019-01-21T08:14:43.406Z,98641.84
2019-01-21T08:18:32.683Z,98642.73
2019-01-21T08:22:15.076Z,98640.73
2019-01-21T08:25:35.621Z,98635.56
2019-01-21T08:28:56.383Z,98635.83
2019-01-21T08:32:17.298Z,98639.59
2019-01-21T08:35:35.769Z,98639.65
2019-01-21T08:38:56.691Z,98639.75
2019-01-21T08:42:12.164Z,98642.64
2019-01-21T08:45:49.049Z,98643.91
2019-01-21T08:49:21.944Z,98650.03
2019-01-21T08:52:42.856Z,98647.70
2019-01-21T08:56:15.546Z,98639.83
2019-01-21T08:59:30.549Z,98633.72
2019-01-21T09:02:48.273Z,98631.59
2019-01-21T09:06:03.169Z,98638.88
2019-01-21T09:09:17.919Z,98640.88
2019-01-21T09:12:51.247Z,98643.86
2019-01-21T09:16:26.433Z,98648.03
2019-01-21T09:19:47.256Z,98646.55
2019-01-21T09:23:10.685Z,98648.10
2019-01-21T09:26:37.791Z,98652.92
2019-01-21T09:29:55.813Z,98656.66
2019-01-21T09:33:16.787Z,98652.22
2019-01-21T09:36:34.963Z,98653.00
2019-01-21T09:40:14.266Z,98659.95
2019-01-21T09:43:44.202Z,98654.30
2019-01-21T09:46:47.255Z,98654.71
2019-01-21T09:49:51.957Z,98650.48
2019-01-21T09:52:57.489Z,98656.20
2019-01-21T09:56:03.081Z,98653.20
2019-01-21T09:59:07.973Z,98652.73
2019-01-21T10:02:12.908Z,98654.80
2019-01-21T10:05:17.738Z,98650.80
2019-01-21T10:08:29.850Z,98641.42
2019-01-21T10:11:47.595Z,98639.09
2019-01-21T10:14:59.786Z,98632.13
2019-01-21T10:18:14.551Z,98630.45
2019-01-21T10:21:35.363Z,98636.63
2019-01-21T10:25:02.211Z,98637.93
2019-01-21T10:28:23.430Z,98649.16
2019-01-21T10:32:02.772Z,98640.53
2019-01-21T10:35:41.974Z,98625.98
2019-01-21T10:39:11.767Z,98631.75
2019-01-21T10:42:38.074Z,98618.61
2019-01-21T10:46:11.381Z,98613.52
2019-01-21T10:49:23.780Z,98616.61
2019-01-21T10:52:51.024Z,98613.89
2019-01-21T10:56:12.047Z,98607.98
2019-01-21T10:59:30.157Z,98602.55
2019-01-21T11:03:14.411Z,98609.62
2019-01-21T11:06:49.493Z,98608.11
2019-01-21T11:10:30.678Z,98605.25
2019-01-21T11:14:06.431Z,98604.97
2019-01-21T11:17:27.429Z,98600.21
2019-01-21T11:20:59.184Z,98601.09
2019-01-21T11:24:31.047Z,98595.30
2019-01-21T11:28:07.367Z,98591.50
2019-01-21T11:31:40.856Z,98590.68
2019-01-21T11:35:02.052Z,98595.52
2019-01-21T11:38:33.527Z,98587.59
2019-01-21T11:42:08.458Z,98590.41
2019-01-21T11:45:32.611Z,98586.30
2019-01-21T11:49:11.938Z,98581.35
2019-01-21T11:52:26.719Z,98577.65
2019-01-21T11:55:38.640Z,98577.61
2019-01-21T11:58:56.698Z,98573.55
2019-01-21T12:02:08.288Z,98568.60
2019-01-21T12:05:26.369Z,98572.16
2019-01-21T12:08:55.983Z,98575.42
2019-01-21T12:12:05.398Z,98571.83
2019-01-21T12:15:29.339Z,98566.14
2019-01-21T12:18:50.910Z,98563.79
2019-01-21T12:22:25.843Z,98560.34
2019-01-21T12:25:44.093Z,98554.66
2019-01-21T12:28:58.852Z,98548.81
2019-01-21T12:32:22.951Z,98549.94
2019-01-21T12:35:44.343Z,98547.77
2019-01-21T12:39:16.264Z,98549.11
2019-01-21T12:42:28.137Z,98548.84
2019-01-21T12:45:49.122Z,98542.95
2019-01-21T12:49:10.043Z,98542.30
2019-01-21T12:52:21.740Z,98536.95
2019-01-21T12:55:51.772Z,98531.37
2019-01-21T12:59:06.983Z,98530.88
2019-01-21T13:02:22.321Z,98531.38
2019-01-21T13:05:48.454Z,98529.48
2019-01-21T13:09:12.488Z,98527.58
2019-01-21T13:12:42.367Z,98520.12
2019-01-21T13:15:57.333Z,98511.28
2019-01-21T13:19:39.738Z,98512.51
2019-01-21T13:22:51.785Z,98513.14
2019-01-21T13:26:35.645Z,98514.16
2019-01-21T13:29:45.144Z,98512.05
2019-01-21T13:32:59.772Z,98502.40
2019-01-21T13:36:23.962Z,98502.16
2019-01-21T13:40:01.824Z,98505.05
2019-01-21T13:43:40.477Z,98504.69
2019-01-21T13:47:02.261Z,98498.30
2019-01-21T13:50:37.199Z,98509.77
2019-01-21T13:54:13.848Z,98513.34
2019-01-21T13:57:42.458Z,98509.63
2019-01-21T14:01:09.818Z,98507.98
2019-01-21T14:04:36.373Z,98499.95
2019-01-21T14:08:00.786Z,98503.23
2019-01-21T14:11:29.521Z,98497.83
2019-01-21T14:14:48.002Z,98495.69
2019-01-21T14:18:24.004Z,98502.94
2019-01-21T14:21:33.429Z,98505.59
2019-01-21T14:25:11.174Z,98503.41
2019-01-21T14:28:42.053Z,98504.33
2019-01-21T14:32:15.760Z,98493.25
2019-01-21T14:35:41.900Z,98498.78
2019-01-21T14:38:51.440Z,98494.48
2019-01-21T14:42:12.573Z,98492.94
2019-01-21T14:45:36.229Z,98492.84
2019-01-21T14:49:17.133Z,98486.47
2019-01-21T14:52:38.441Z,98481.72
2019-01-21T14:56:12.689Z,98479.72
2019-01-21T14:59:39.276Z,98476.72
2019-01-21T15:03:07.729Z,98478.94
2019-01-21T15:06:19.832Z,98481.17
2019-01-21T15:09:57.976Z,98488.98
2019-01-21T15:13:18.925Z,98480.83
2019-01-21T15:16:33.969Z,98487.19
2019-01-21T15:19:40.906Z,98482.78
2019-01-21T15:23:04.367Z,98483.45
2019-01-21T15:26:24.781Z,98484.20
2019-01-21T15:29:51.556Z,98484.70
2019-01-21T15:33:09.754Z,98495.61
2019-01-21T15:36:24.404Z,98491.14
2019-01-21T15:39:46.105Z,98494.63
2019-01-21T15:43:11.673Z,98494.23
2019-01-21T15:46:40.872Z,98495.59
2019-01-21T15:49:56.121Z,98499.99
2019-01-21T15:53:29.519Z,98495.95
2019-01-21T15:57:28.935Z,98503.05
2019-01-21T16:00:55.976Z,98505.61
2019-01-21T16:04:08.504Z,98503.53
2019-01-21T16:07:32.705Z,98502.92
2019-01-21T16:11:11.823Z,98502.62
2019-01-21T16:14:17.681Z,98503.38
2019-01-21T16:17:42.074Z,98504.78
2019-01-21T16:21:39.736Z,98499.05
2019-01-21T16:25:03.133Z,98504.77
2019-01-21T16:28:30.121Z,98508.56
2019-01-21T16:31:34.632Z,98507.45
2019-01-21T16:34:58.684Z,98506.59
2019-01-21T16:38:08.077Z,98509.52
2019-01-21T16:41:37.973Z,98511.80
2019-01-21T16:44:45.171Z,98512.35
2019-01-21T16:47:49.863Z,98517.97
2019-01-21T16:50:54.309Z,98516.42
2019-01-21T16:53:58.770Z,98518.36
2019-01-21T16:57:03.540Z,98505.05
2019-01-21T17:00:12.811Z,98503.42
2019-01-21T17:03:17.248Z,98492.25
2019-01-21T17:06:22.135Z,98489.00
2019-01-21T17:09:26.589Z,98485.32
2019-01-21T17:12:31.032Z,98495.41
2019-01-21T17:15:35.811Z,98494.63
2019-01-21T17:18:40.328Z,98494.62
2019-01-21T17:21:45.087Z,98490.47
2019-01-21T17:24:49.799Z,98491.97
2019-01-21T17:27:54.242Z,98500.05
2019-01-21T17:30:58.962Z,98494.50
2019-01-21T17:34:03.690Z,98506.77
2019-01-21T17:37:08.526Z,98500.79
2019-01-21T17:40:17.884Z,98503.20
2019-01-21T17:43:22.329Z,98505.88
2019-01-21T17:46:27.114Z,98505.89
2019-01-21T17:49:31.848Z,98508.67
2019-01-21T17:52:36.575Z,98509.48
2019-01-21T17:55:41.030Z,98507.41
2019-01-21T17:58:45.733Z,98501.97
2019-01-21T18:01:50.182Z,98504.20
2019-01-21T18:04:54.637Z,98509.05
2019-01-21T18:07:59.087Z,98510.05
2019-01-21T18:11:04.519Z,98521.55
2019-01-21T18:14:09.477Z,98510.97
2019-01-21T18:17:13.947Z,98514.96
2019-01-21T18:20:21.814Z,98511.11
2019-01-21T18:23:26.547Z,98512.28
2019-01-21T18:26:30.996Z,98517.02
2019-01-21T18:29:35.434Z,98512.58
2019-01-21T18:32:40.222Z,98506.89
2019-01-21T18:35:44.674Z,98502.16
2019-01-21T18:38:49.122Z,98508.58
2019-01-21T18:41:53.773Z,98505.95
2019-01-21T18:44:58.528Z,98521.47
2019-01-21T18:48:03.365Z,98521.42
2019-01-21T18:51:07.838Z,98521.78
2019-01-21T18:54:12.524Z,98518.13
2019-01-21T18:57:17.163Z,98517.92
2019-01-21T19:00:24.208Z,98508.83
2019-01-21T19:03:28.646Z,98508.20
2019-01-21T19:06:33.386Z,98496.81
2019-01-21T19:09:38.124Z,98504.83
2019-01-21T19:12:42.589Z,98513.09
2019-01-21T19:15:47.036Z,98507.72
2019-01-21T19:18:51.480Z,98507.73
2019-01-21T19:21:55.928Z,98509.52
2019-01-21T19:25:00.370Z,98512.45
2019-01-21T19:28:04.825Z,98505.88
2019-01-21T19:31:09.278Z,98507.45
2019-01-21T19:34:13.714Z,98508.27
2019-01-21T19:37:18.451Z,98499.76
2019-01-21T19:40:23.999Z,98502.72
2019-01-21T19:43:28.440Z,98492.49
2019-01-21T19:46:32.893Z,98495.55
2019-01-21T19:49:37.331Z,98492.36
2019-01-21T19:52:41.855Z,98482.70
2019-01-21T19:55:46.305Z,98479.25
2019-01-21T19:58:50.844Z,98472.72
2019-01-21T20:01:55.314Z,98481.66
2019-01-21T20:04:59.995Z,98476.77
2019-01-21T20:08:04.446Z,98482.34
2019-01-21T20:11:09.252Z,98479.22
2019-01-21T20:14:13.693Z,98485.61
2019-01-21T20:17:18.150Z,98476.74
2019-01-21T20:20:35.994Z,98476.67
2019-01-21T20:23:40.770Z,98474.33
2019-01-21T20:26:45.218Z,98484.78
2019-01-21T20:29:49.660Z,98482.42
2019-01-21T20:32:54.507Z,98484.71
2019-01-21T20:35:58.907Z,98491.27
2019-01-21T20:39:05.010Z,98486.23
2019-01-21T20:42:09.454Z,98489.33
2019-01-21T20:45:14.710Z,98484.84
2019-01-21T20:48:19.441Z,98491.00
2019-01-21T20:51:23.888Z,98493.21
2019-01-21T20:54:28.340Z,98488.52
2019-01-21T20:57:32.788Z,98489.55
2019-01-21T21:00:37.540Z,98494.75
2019-01-21T21:03:42.274Z,98492.68
2019-01-21T21:06:46.998Z,98487.47
2019-01-21T21:09:51.456Z,98487.55
2019-01-21T21:12:55.911Z,98489.06
2019-01-21T21:16:00.685Z,98481.73
2019-01-21T21:19:05.422Z,98480.54
2019-01-21T21:22:10.140Z,98476.59
2019-01-21T21:25:18.394Z,98474.52
2019-01-21T21:28:22.850Z,98471.20
2019-01-21T21:31:27.571Z,98462.54
2019-01-21T21:34:32.343Z,98467.26
2019-01-21T21:37:37.183Z,98466.48
2019-01-21T21:40:41.912Z,98469.04
2019-01-21T21:43:46.356Z,98463.49
2019-01-21T21:46:51.063Z,98464.69
2019-01-21T21:49:55.510Z,98461.63
2019-01-21T21:53:00.238Z,98463.50
2019-01-21T21:56:04.953Z,98459.75
2019-01-21T21:59:09.398Z,98460.19
2019-01-21T22:02:13.845Z,98455.64
2019-01-21T22:05:19.435Z,98453.23
2019-01-21T22:08:23.888Z,98453.97
2019-01-21T22:11:28.332Z,98452.02
2019-01-21T22:14:33.432Z,98446.96
2019-01-21T22:17:38.162Z,98444.20
2019-01-21T22:20:42.611Z,98444.20
2019-01-21T22:23:47.080Z,98443.44
2019-01-21T22:26:51.529Z,98443.45
2019-01-21T22:29:55.974Z,98449.56
2019-01-21T22:33:00.692Z,98441.83
2019-01-21T22:36:05.940Z,98442.56
2019-01-21T22:39:10.392Z,98440.13
2019-01-21T22:42:15.093Z,98434.38
2019-01-21T22:45:20.890Z,98431.16
2019-01-21T22:48:25.346Z,98435.39
2019-01-21T22:51:29.792Z,98424.95
2019-01-21T22:54:34.242Z,98422.99
2019-01-21T22:57:39.254Z,98424.40
2019-01-21T23:00:50.144Z,98413.17
2019-01-21T23:03:54.862Z,98415.00
2019-01-21T23:06:59.620Z,98400.42
2019-01-21T23:10:07.664Z,98407.30
2019-01-21T23:13:12.114Z,98398.70
2019-01-21T23:16:17.063Z,98393.30
2019-01-21T23:19:21.515Z,98387.29
2019-01-21T23:22:25.972Z,98391.33
2019-01-21T23:25:30.430Z,98396.78
2019-01-21T23:28:34.878Z,98390.84
2019-01-21T23:31:39.621Z,98393.34
2019-01-21T23:34:44.382Z,98385.63
2019-01-21T23:37:49.260Z,98378.47
2019-01-21T23:40:53.715Z,98376.59
2019-01-21T23:43:58.172Z,98369.11
2019-01-21T23:47:02.635Z,98366.38
2019-01-21T23:50:16.323Z,98371.13
2019-01-21T23:53:20.776Z,98359.38
2019-01-21T23:56:25.534Z,98362.67
2019-01-21T23:59:30.256Z,98360.48
